sensor_id;sensor_type;location;lat;lon;timestamp;P1;durP1;ratioP1;P2;durP2;ratioP2
545;SDS011;259;53.304;9.816;2022-10-19T00:01:28;1.30;;;0.73;;
545;SDS011;259;53.304;9.816;2022-10-19T00:03:54;1.63;;;0.67;;
545;SDS011;259;53.304;9.816;2022-10-19T00:06:21;0.87;;;0.70;;
545;SDS011;259;53.304;9.816;2022-10-19T00:08:58;0.90;;;0.73;;
545;SDS011;259;53.304;9.816;2022-10-19T00:11:32;0.70;;;0.67;;
545;SDS011;259;53.304;9.816;2022-10-19T00:13:59;0.90;;;0.77;;
545;SDS011;259;53.304;9.816;2022-10-19T00:16:27;1.30;;;0.97;;
545;SDS011;259;53.304;9.816;2022-10-19T00:18:55;0.80;;;0.67;;
545;SDS011;259;53.304;9.816;2022-10-19T00:21:22;1.23;;;0.60;;
545;SDS011;259;53.304;9.816;2022-10-19T00:23:47;0.67;;;0.50;;
545;SDS011;259;53.304;9.816;2022-10-19T00:26:13;0.83;;;0.60;;
545;SDS011;259;53.304;9.816;2022-10-19T00:28:39;0.70;;;0.57;;
545;SDS011;259;53.304;9.816;2022-10-19T00:31:10;2.00;;;1.00;;
545;SDS011;259;53.304;9.816;2022-10-19T00:33:37;1.80;;;0.80;;
545;SDS011;259;53.304;9.816;2022-10-19T00:36:04;0.70;;;0.70;;
545;SDS011;259;53.304;9.816;2022-10-19T00:38:30;1.13;;;0.80;;
545;SDS011;259;53.304;9.816;2022-10-19T00:40:56;0.90;;;0.80;;
545;SDS011;259;53.304;9.816;2022-10-19T00:43:23;1.60;;;0.80;;
545;SDS011;259;53.304;9.816;2022-10-19T00:45:50;0.60;;;0.50;;
545;SDS011;259;53.304;9.816;2022-10-19T00:48:18;1.50;;;1.00;;
545;SDS011;259;53.304;9.816;2022-10-19T00:50:52;1.23;;;0.87;;
545;SDS011;259;53.304;9.816;2022-10-19T00:53:20;1.07;;;0.47;;
545;SDS011;259;53.304;9.816;2022-10-19T00:55:47;1.00;;;0.63;;
545;SDS011;259;53.304;9.816;2022-10-19T00:58:13;0.70;;;0.57;;
545;SDS011;259;53.304;9.816;2022-10-19T01:00:39;1.00;;;0.63;;
545;SDS011;259;53.304;9.816;2022-10-19T01:03:05;0.70;;;0.57;;
545;SDS011;259;53.304;9.816;2022-10-19T01:05:32;1.40;;;0.93;;
545;SDS011;259;53.304;9.816;2022-10-19T01:07:58;1.00;;;0.50;;
545;SDS011;259;53.304;9.816;2022-10-19T01:10:29;0.93;;;0.60;;
545;SDS011;259;53.304;9.816;2022-10-19T01:13:10;1.40;;;0.70;;
545;SDS011;259;53.304;9.816;2022-10-19T01:18:58;1.00;;;0.70;;
545;SDS011;259;53.304;9.816;2022-10-19T01:21:47;1.27;;;0.70;;
545;SDS011;259;53.304;9.816;2022-10-19T01:27:08;0.60;;;0.50;;
545;SDS011;259;53.304;9.816;2022-10-19T01:29:59;1.57;;;0.70;;
545;SDS011;259;53.304;9.816;2022-10-19T01:38:00;1.37;;;0.60;;
545;SDS011;259;53.304;9.816;2022-10-19T01:43:10;0.80;;;0.60;;
545;SDS011;259;53.304;9.816;2022-10-19T01:45:58;0.83;;;0.70;;
545;SDS011;259;53.304;9.816;2022-10-19T01:48:35;1.20;;;0.70;;
545;SDS011;259;53.304;9.816;2022-10-19T01:51:04;1.47;;;0.90;;
545;SDS011;259;53.304;9.816;2022-10-19T01:53:37;0.80;;;0.70;;
545;SDS011;259;53.304;9.816;2022-10-19T01:56:06;0.70;;;0.60;;
545;SDS011;259;53.304;9.816;2022-10-19T01:58:33;0.80;;;0.50;;
545;SDS011;259;53.304;9.816;2022-10-19T02:01:03;0.60;;;0.60;;
545;SDS011;259;53.304;9.816;2022-10-19T02:03:30;1.10;;;0.50;;
545;SDS011;259;53.304;9.816;2022-10-19T02:05:58;0.77;;;0.50;;
545;SDS011;259;53.304;9.816;2022-10-19T02:08:29;0.93;;;0.50;;
545;SDS011;259;53.304;9.816;2022-10-19T02:11:04;0.70;;;0.60;;
545;SDS011;259;53.304;9.816;2022-10-19T02:13:30;0.60;;;0.50;;
545;SDS011;259;53.304;9.816;2022-10-19T02:15:58;0.90;;;0.50;;
545;SDS011;259;53.304;9.816;2022-10-19T02:18:28;0.70;;;0.50;;
545;SDS011;259;53.304;9.816;2022-10-19T02:20:59;0.70;;;0.70;;
545;SDS011;259;53.304;9.816;2022-10-19T02:23:26;0.63;;;0.63;;
545;SDS011;259;53.304;9.816;2022-10-19T02:25:52;0.90;;;0.57;;
545;SDS011;259;53.304;9.816;2022-10-19T02:28:19;0.53;;;0.47;;
545;SDS011;259;53.304;9.816;2022-10-19T02:30:46;0.90;;;0.60;;
545;SDS011;259;53.304;9.816;2022-10-19T02:33:12;0.60;;;0.50;;
545;SDS011;259;53.304;9.816;2022-10-19T02:35:38;0.60;;;0.60;;
545;SDS011;259;53.304;9.816;2022-10-19T02:38:04;0.80;;;0.60;;
545;SDS011;259;53.304;9.816;2022-10-19T02:40:32;1.50;;;0.70;;
545;SDS011;259;53.304;9.816;2022-10-19T02:43:04;1.27;;;1.00;;
545;SDS011;259;53.304;9.816;2022-10-19T02:45:42;0.60;;;0.50;;
545;SDS011;259;53.304;9.816;2022-10-19T02:48:18;0.80;;;0.57;;
545;SDS011;259;53.304;9.816;2022-10-19T02:50:47;0.50;;;0.50;;
545;SDS011;259;53.304;9.816;2022-10-19T02:53:13;0.80;;;0.50;;
545;SDS011;259;53.304;9.816;2022-10-19T02:55:39;1.00;;;0.90;;
545;SDS011;259;53.304;9.816;2022-10-19T02:58:06;0.60;;;0.60;;
545;SDS011;259;53.304;9.816;2022-10-19T03:00:32;0.60;;;0.40;;
545;SDS011;259;53.304;9.816;2022-10-19T03:02:58;0.70;;;0.70;;
545;SDS011;259;53.304;9.816;2022-10-19T03:05:24;0.73;;;0.47;;
545;SDS011;259;53.304;9.816;2022-10-19T03:07:49;1.00;;;0.57;;
545;SDS011;259;53.304;9.816;2022-10-19T03:10:15;1.40;;;0.67;;
545;SDS011;259;53.304;9.816;2022-10-19T03:12:41;0.60;;;0.47;;
545;SDS011;259;53.304;9.816;2022-10-19T03:15:07;0.90;;;0.60;;
545;SDS011;259;53.304;9.816;2022-10-19T03:17:34;0.60;;;0.50;;
545;SDS011;259;53.304;9.816;2022-10-19T03:20:00;0.60;;;0.50;;
545;SDS011;259;53.304;9.816;2022-10-19T03:22:25;0.70;;;0.60;;
545;SDS011;259;53.304;9.816;2022-10-19T03:24:51;1.30;;;0.70;;
545;SDS011;259;53.304;9.816;2022-10-19T03:27:16;1.30;;;0.60;;
545;SDS011;259;53.304;9.816;2022-10-19T03:29:42;0.73;;;0.63;;
545;SDS011;259;53.304;9.816;2022-10-19T03:32:07;1.47;;;0.60;;
545;SDS011;259;53.304;9.816;2022-10-19T03:34:33;0.73;;;0.50;;
545;SDS011;259;53.304;9.816;2022-10-19T03:36:58;1.37;;;0.57;;
545;SDS011;259;53.304;9.816;2022-10-19T03:39:24;0.80;;;0.53;;
545;SDS011;259;53.304;9.816;2022-10-19T03:41:50;0.50;;;0.40;;
545;SDS011;259;53.304;9.816;2022-10-19T03:44:15;1.07;;;0.63;;
545;SDS011;259;53.304;9.816;2022-10-19T03:46:41;1.10;;;0.60;;
545;SDS011;259;53.304;9.816;2022-10-19T03:49:07;0.60;;;0.40;;
545;SDS011;259;53.304;9.816;2022-10-19T03:51:33;0.70;;;0.50;;
545;SDS011;259;53.304;9.816;2022-10-19T03:54:00;1.20;;;0.60;;
545;SDS011;259;53.304;9.816;2022-10-19T03:56:31;0.70;;;0.50;;
545;SDS011;259;53.304;9.816;2022-10-19T03:58:58;0.57;;;0.43;;
545;SDS011;259;53.304;9.816;2022-10-19T04:01:25;0.60;;;0.50;;
545;SDS011;259;53.304;9.816;2022-10-19T04:03:54;1.17;;;0.50;;
545;SDS011;259;53.304;9.816;2022-10-19T04:06:23;1.30;;;0.50;;
545;SDS011;259;53.304;9.816;2022-10-19T04:08:51;1.33;;;0.60;;
545;SDS011;259;53.304;9.816;2022-10-19T04:11:17;2.77;;;0.63;;
545;SDS011;259;53.304;9.816;2022-10-19T04:13:49;0.60;;;0.50;;
545;SDS011;259;53.304;9.816;2022-10-19T04:16:16;0.70;;;0.50;;
545;SDS011;259;53.304;9.816;2022-10-19T04:18:42;0.80;;;0.50;;
545;SDS011;259;53.304;9.816;2022-10-19T04:24:08;0.93;;;0.57;;
545;SDS011;259;53.304;9.816;2022-10-19T04:26:40;0.50;;;0.40;;
545;SDS011;259;53.304;9.816;2022-10-19T04:29:10;0.70;;;0.47;;
545;SDS011;259;53.304;9.816;2022-10-19T04:31:36;1.40;;;0.57;;
545;SDS011;259;53.304;9.816;2022-10-19T04:34:02;0.80;;;0.70;;
545;SDS011;259;53.304;9.816;2022-10-19T04:36:28;0.60;;;0.50;;
545;SDS011;259;53.304;9.816;2022-10-19T04:38:54;1.20;;;0.60;;
545;SDS011;259;53.304;9.816;2022-10-19T04:41:20;0.67;;;0.50;;
545;SDS011;259;53.304;9.816;2022-10-19T04:43:46;0.90;;;0.60;;
545;SDS011;259;53.304;9.816;2022-10-19T04:46:14;0.87;;;0.60;;
545;SDS011;259;53.304;9.816;2022-10-19T04:48:41;1.03;;;0.60;;
545;SDS011;259;53.304;9.816;2022-10-19T04:51:09;1.43;;;0.70;;
545;SDS011;259;53.304;9.816;2022-10-19T04:53:36;0.70;;;0.50;;
545;SDS011;259;53.304;9.816;2022-10-19T04:56:03;1.23;;;0.70;;
545;SDS011;259;53.304;9.816;2022-10-19T04:58:30;1.00;;;0.83;;
545;SDS011;259;53.304;9.816;2022-10-19T05:00:56;0.73;;;0.60;;
545;SDS011;259;53.304;9.816;2022-10-19T05:03:22;0.60;;;0.40;;
545;SDS011;259;53.304;9.816;2022-10-19T05:05:47;0.60;;;0.50;;
545;SDS011;259;53.304;9.816;2022-10-19T05:08:13;1.20;;;0.80;;
545;SDS011;259;53.304;9.816;2022-10-19T05:10:38;1.03;;;0.63;;
545;SDS011;259;53.304;9.816;2022-10-19T05:13:04;1.07;;;0.53;;
545;SDS011;259;53.304;9.816;2022-10-19T05:15:30;1.83;;;0.40;;
545;SDS011;259;53.304;9.816;2022-10-19T05:17:56;1.23;;;0.50;;
545;SDS011;259;53.304;9.816;2022-10-19T05:20:21;0.60;;;0.50;;
545;SDS011;259;53.304;9.816;2022-10-19T05:22:48;0.70;;;0.40;;
545;SDS011;259;53.304;9.816;2022-10-19T05:25:13;0.60;;;0.53;;
545;SDS011;259;53.304;9.816;2022-10-19T05:27:39;0.80;;;0.50;;
545;SDS011;259;53.304;9.816;2022-10-19T05:30:05;2.10;;;0.83;;
545;SDS011;259;53.304;9.816;2022-10-19T05:32:32;0.60;;;0.50;;
545;SDS011;259;53.304;9.816;2022-10-19T05:34:58;0.80;;;0.53;;
545;SDS011;259;53.304;9.816;2022-10-19T05:37:23;0.60;;;0.50;;
545;SDS011;259;53.304;9.816;2022-10-19T05:39:49;1.07;;;0.60;;
545;SDS011;259;53.304;9.816;2022-10-19T05:42:15;0.60;;;0.50;;
545;SDS011;259;53.304;9.816;2022-10-19T05:44:41;0.70;;;0.50;;
545;SDS011;259;53.304;9.816;2022-10-19T05:47:07;0.90;;;0.67;;
545;SDS011;259;53.304;9.816;2022-10-19T05:49:32;0.70;;;0.50;;
545;SDS011;259;53.304;9.816;2022-10-19T05:51:58;1.03;;;0.60;;
545;SDS011;259;53.304;9.816;2022-10-19T05:54:24;0.90;;;0.53;;
545;SDS011;259;53.304;9.816;2022-10-19T05:56:49;0.60;;;0.50;;
545;SDS011;259;53.304;9.816;2022-10-19T05:59:16;0.80;;;0.60;;
545;SDS011;259;53.304;9.816;2022-10-19T06:01:44;0.73;;;0.50;;
545;SDS011;259;53.304;9.816;2022-10-19T06:04:09;0.90;;;0.50;;
545;SDS011;259;53.304;9.816;2022-10-19T06:06:38;0.90;;;0.50;;
545;SDS011;259;53.304;9.816;2022-10-19T06:09:03;1.03;;;0.60;;
545;SDS011;259;53.304;9.816;2022-10-19T06:11:30;1.97;;;1.00;;
545;SDS011;259;53.304;9.816;2022-10-19T06:14:00;1.10;;;0.50;;
545;SDS011;259;53.304;9.816;2022-10-19T06:16:28;1.50;;;0.47;;
545;SDS011;259;53.304;9.816;2022-10-19T06:18:56;0.80;;;0.50;;
545;SDS011;259;53.304;9.816;2022-10-19T06:21:23;1.03;;;0.53;;
545;SDS011;259;53.304;9.816;2022-10-19T06:23:52;0.77;;;0.70;;
545;SDS011;259;53.304;9.816;2022-10-19T06:26:23;1.20;;;0.50;;
545;SDS011;259;53.304;9.816;2022-10-19T06:28:49;1.73;;;0.50;;
545;SDS011;259;53.304;9.816;2022-10-19T06:31:15;1.10;;;0.50;;
545;SDS011;259;53.304;9.816;2022-10-19T06:33:42;1.60;;;0.70;;
545;SDS011;259;53.304;9.816;2022-10-19T06:36:13;7.80;;;1.27;;
545;SDS011;259;53.304;9.816;2022-10-19T06:38:40;0.77;;;0.77;;
545;SDS011;259;53.304;9.816;2022-10-19T06:41:07;0.60;;;0.60;;
545;SDS011;259;53.304;9.816;2022-10-19T06:43:33;0.70;;;0.60;;
545;SDS011;259;53.304;9.816;2022-10-19T06:46:09;0.60;;;0.40;;
545;SDS011;259;53.304;9.816;2022-10-19T06:48:39;0.50;;;0.50;;
545;SDS011;259;53.304;9.816;2022-10-19T06:51:05;0.83;;;0.43;;
545;SDS011;259;53.304;9.816;2022-10-19T06:53:31;1.00;;;0.80;;
545;SDS011;259;53.304;9.816;2022-10-19T06:55:59;0.93;;;0.60;;
545;SDS011;259;53.304;9.816;2022-10-19T06:58:25;0.57;;;0.40;;
545;SDS011;259;53.304;9.816;2022-10-19T07:00:55;3.83;;;0.70;;
545;SDS011;259;53.304;9.816;2022-10-19T07:03:21;0.80;;;0.53;;
545;SDS011;259;53.304;9.816;2022-10-19T07:05:55;0.60;;;0.50;;
545;SDS011;259;53.304;9.816;2022-10-19T07:08:23;0.73;;;0.60;;
545;SDS011;259;53.304;9.816;2022-10-19T07:10:53;0.60;;;0.40;;
545;SDS011;259;53.304;9.816;2022-10-19T07:13:20;0.80;;;0.67;;
545;SDS011;259;53.304;9.816;2022-10-19T07:15:46;0.90;;;0.50;;
545;SDS011;259;53.304;9.816;2022-10-19T07:18:12;0.90;;;0.60;;
545;SDS011;259;53.304;9.816;2022-10-19T07:20:38;0.70;;;0.60;;
545;SDS011;259;53.304;9.816;2022-10-19T07:23:04;1.17;;;0.70;;
545;SDS011;259;53.304;9.816;2022-10-19T07:25:29;1.10;;;0.50;;
545;SDS011;259;53.304;9.816;2022-10-19T07:27:55;0.60;;;0.47;;
545;SDS011;259;53.304;9.816;2022-10-19T07:30:21;0.70;;;0.70;;
545;SDS011;259;53.304;9.816;2022-10-19T07:32:47;0.70;;;0.57;;
545;SDS011;259;53.304;9.816;2022-10-19T07:35:13;2.10;;;1.00;;
545;SDS011;259;53.304;9.816;2022-10-19T07:37:39;0.80;;;0.57;;
545;SDS011;259;53.304;9.816;2022-10-19T07:40:05;1.07;;;0.60;;
545;SDS011;259;53.304;9.816;2022-10-19T07:42:31;1.30;;;0.50;;
545;SDS011;259;53.304;9.816;2022-10-19T07:44:57;0.90;;;0.70;;
545;SDS011;259;53.304;9.816;2022-10-19T07:47:22;0.63;;;0.50;;
545;SDS011;259;53.304;9.816;2022-10-19T07:49:48;0.70;;;0.60;;
545;SDS011;259;53.304;9.816;2022-10-19T07:52:13;0.90;;;0.63;;
545;SDS011;259;53.304;9.816;2022-10-19T07:54:39;0.70;;;0.57;;
545;SDS011;259;53.304;9.816;2022-10-19T07:57:04;1.13;;;0.73;;
545;SDS011;259;53.304;9.816;2022-10-19T07:59:30;1.23;;;0.57;;
545;SDS011;259;53.304;9.816;2022-10-19T08:01:56;0.80;;;0.60;;
545;SDS011;259;53.304;9.816;2022-10-19T08:04:22;0.80;;;0.63;;
545;SDS011;259;53.304;9.816;2022-10-19T08:06:48;1.47;;;0.57;;
545;SDS011;259;53.304;9.816;2022-10-19T08:09:14;0.60;;;0.43;;
545;SDS011;259;53.304;9.816;2022-10-19T08:11:39;0.87;;;0.50;;
545;SDS011;259;53.304;9.816;2022-10-19T08:14:05;0.77;;;0.70;;
545;SDS011;259;53.304;9.816;2022-10-19T08:16:35;1.87;;;0.87;;
545;SDS011;259;53.304;9.816;2022-10-19T08:19:09;0.80;;;0.60;;
545;SDS011;259;53.304;9.816;2022-10-19T08:21:36;1.07;;;0.50;;
545;SDS011;259;53.304;9.816;2022-10-19T08:24:04;0.80;;;0.53;;
545;SDS011;259;53.304;9.816;2022-10-19T08:26:31;0.77;;;0.70;;
545;SDS011;259;53.304;9.816;2022-10-19T08:28:58;0.63;;;0.63;;
545;SDS011;259;53.304;9.816;2022-10-19T08:31:25;1.50;;;0.60;;
545;SDS011;259;53.304;9.816;2022-10-19T08:33:50;0.90;;;0.70;;
545;SDS011;259;53.304;9.816;2022-10-19T08:36:16;0.60;;;0.40;;
545;SDS011;259;53.304;9.816;2022-10-19T08:38:45;0.80;;;0.40;;
545;SDS011;259;53.304;9.816;2022-10-19T08:49:24;0.70;;;0.50;;
545;SDS011;259;53.304;9.816;2022-10-19T08:51:53;0.93;;;0.70;;
545;SDS011;259;53.304;9.816;2022-10-19T08:54:22;0.83;;;0.57;;
545;SDS011;259;53.304;9.816;2022-10-19T09:02:33;2.40;;;0.90;;
545;SDS011;259;53.304;9.816;2022-10-19T09:07:58;3.47;;;1.10;;
545;SDS011;259;53.304;9.816;2022-10-19T09:10:25;4.40;;;0.67;;
545;SDS011;259;53.304;9.816;2022-10-19T09:12:57;4.93;;;1.40;;
545;SDS011;259;53.304;9.816;2022-10-19T09:15:33;2.43;;;0.87;;
545;SDS011;259;53.304;9.816;2022-10-19T09:18:27;2.57;;;1.17;;
545;SDS011;259;53.304;9.816;2022-10-19T09:23:39;2.40;;;1.20;;
545;SDS011;259;53.304;9.816;2022-10-19T09:26:16;1.10;;;0.90;;
545;SDS011;259;53.304;9.816;2022-10-19T09:31:13;4.93;;;1.00;;
545;SDS011;259;53.304;9.816;2022-10-19T09:33:44;2.33;;;1.20;;
545;SDS011;259;53.304;9.816;2022-10-19T09:36:17;6.00;;;1.13;;
545;SDS011;259;53.304;9.816;2022-10-19T09:38:42;11.70;;;2.20;;
545;SDS011;259;53.304;9.816;2022-10-19T09:41:12;8.40;;;1.50;;
545;SDS011;259;53.304;9.816;2022-10-19T09:43:43;3.60;;;1.60;;
545;SDS011;259;53.304;9.816;2022-10-19T09:46:19;8.20;;;1.77;;
545;SDS011;259;53.304;9.816;2022-10-19T09:49:07;7.17;;;1.63;;
545;SDS011;259;53.304;9.816;2022-10-19T09:51:43;3.20;;;1.50;;
545;SDS011;259;53.304;9.816;2022-10-19T09:54:23;7.53;;;1.10;;
545;SDS011;259;53.304;9.816;2022-10-19T09:56:54;3.30;;;0.87;;
545;SDS011;259;53.304;9.816;2022-10-19T09:59:21;4.97;;;0.80;;
545;SDS011;259;53.304;9.816;2022-10-19T10:01:57;5.80;;;1.20;;
545;SDS011;259;53.304;9.816;2022-10-19T10:04:27;6.97;;;1.30;;
545;SDS011;259;53.304;9.816;2022-10-19T10:06:54;7.03;;;1.50;;
545;SDS011;259;53.304;9.816;2022-10-19T10:09:22;5.30;;;1.27;;
545;SDS011;259;53.304;9.816;2022-10-19T10:11:50;4.20;;;1.00;;
545;SDS011;259;53.304;9.816;2022-10-19T10:14:36;4.43;;;1.33;;
545;SDS011;259;53.304;9.816;2022-10-19T10:17:06;8.93;;;1.50;;
545;SDS011;259;53.304;9.816;2022-10-19T10:19:50;9.77;;;1.87;;
545;SDS011;259;53.304;9.816;2022-10-19T10:22:26;14.70;;;2.50;;
545;SDS011;259;53.304;9.816;2022-10-19T10:24:56;9.03;;;1.80;;
545;SDS011;259;53.304;9.816;2022-10-19T10:27:33;8.30;;;1.83;;
545;SDS011;259;53.304;9.816;2022-10-19T10:30:07;11.10;;;2.70;;
545;SDS011;259;53.304;9.816;2022-10-19T10:32:42;5.00;;;2.00;;
545;SDS011;259;53.304;9.816;2022-10-19T10:35:17;4.83;;;1.47;;
545;SDS011;259;53.304;9.816;2022-10-19T10:37:45;7.33;;;1.47;;
545;SDS011;259;53.304;9.816;2022-10-19T10:40:19;7.67;;;1.70;;
545;SDS011;259;53.304;9.816;2022-10-19T10:42:47;4.07;;;1.43;;
545;SDS011;259;53.304;9.816;2022-10-19T10:47:43;5.67;;;1.60;;
545;SDS011;259;53.304;9.816;2022-10-19T10:50:15;3.60;;;1.67;;
545;SDS011;259;53.304;9.816;2022-10-19T10:52:57;4.27;;;1.60;;
545;SDS011;259;53.304;9.816;2022-10-19T10:55:24;2.50;;;1.33;;
545;SDS011;259;53.304;9.816;2022-10-19T10:57:51;2.00;;;1.30;;
545;SDS011;259;53.304;9.816;2022-10-19T11:00:22;5.03;;;1.37;;
545;SDS011;259;53.304;9.816;2022-10-19T11:03:09;3.80;;;1.27;;
545;SDS011;259;53.304;9.816;2022-10-19T11:05:50;4.10;;;1.70;;
545;SDS011;259;53.304;9.816;2022-10-19T11:08:24;2.97;;;1.40;;
545;SDS011;259;53.304;9.816;2022-10-19T11:16:22;2.53;;;1.50;;
545;SDS011;259;53.304;9.816;2022-10-19T11:19:01;4.83;;;1.30;;
545;SDS011;259;53.304;9.816;2022-10-19T11:24:28;2.90;;;0.97;;
545;SDS011;259;53.304;9.816;2022-10-19T11:43:36;1.60;;;0.80;;
545;SDS011;259;53.304;9.816;2022-10-19T11:51:48;3.37;;;1.50;;
545;SDS011;259;53.304;9.816;2022-10-19T11:59:52;2.17;;;1.03;;
545;SDS011;259;53.304;9.816;2022-10-19T12:05:16;1.63;;;1.00;;
545;SDS011;259;53.304;9.816;2022-10-19T12:07:52;1.53;;;1.00;;
545;SDS011;259;53.304;9.816;2022-10-19T12:10:23;1.13;;;0.70;;
545;SDS011;259;53.304;9.816;2022-10-19T12:12:51;1.00;;;0.87;;
545;SDS011;259;53.304;9.816;2022-10-19T12:21:02;1.20;;;0.70;;
545;SDS011;259;53.304;9.816;2022-10-19T12:26:03;1.53;;;0.90;;
545;SDS011;259;53.304;9.816;2022-10-19T12:28:33;2.20;;;1.00;;
545;SDS011;259;53.304;9.816;2022-10-19T12:31:02;2.03;;;1.10;;
545;SDS011;259;53.304;9.816;2022-10-19T12:36:13;1.43;;;1.00;;
545;SDS011;259;53.304;9.816;2022-10-19T12:38:58;1.23;;;0.80;;
545;SDS011;259;53.304;9.816;2022-10-19T12:47:11;2.43;;;1.13;;
545;SDS011;259;53.304;9.816;2022-10-19T12:49:43;1.73;;;0.80;;
545;SDS011;259;53.304;9.816;2022-10-19T12:52:32;1.17;;;0.73;;
545;SDS011;259;53.304;9.816;2022-10-19T12:55:44;2.00;;;1.07;;
545;SDS011;259;53.304;9.816;2022-10-19T12:57:45;1.53;;;0.80;;
545;SDS011;259;53.304;9.816;2022-10-19T13:02:44;1.73;;;0.70;;
545;SDS011;259;53.304;9.816;2022-10-19T13:05:20;1.73;;;1.03;;
545;SDS011;259;53.304;9.816;2022-10-19T13:07:48;2.67;;;0.90;;
545;SDS011;259;53.304;9.816;2022-10-19T13:10:18;0.90;;;0.60;;
545;SDS011;259;53.304;9.816;2022-10-19T13:12:47;2.47;;;1.10;;
545;SDS011;259;53.304;9.816;2022-10-19T13:17:57;1.90;;;1.00;;
545;SDS011;259;53.304;9.816;2022-10-19T13:25:30;3.60;;;1.10;;
545;SDS011;259;53.304;9.816;2022-10-19T13:36:04;2.77;;;1.30;;
545;SDS011;259;53.304;9.816;2022-10-19T13:38:32;3.90;;;2.13;;
545;SDS011;259;53.304;9.816;2022-10-19T13:49:19;3.67;;;1.23;;
545;SDS011;259;53.304;9.816;2022-10-19T13:51:54;3.77;;;1.47;;
545;SDS011;259;53.304;9.816;2022-10-19T14:08:02;6.73;;;1.90;;
545;SDS011;259;53.304;9.816;2022-10-19T14:10:51;10.83;;;2.30;;
545;SDS011;259;53.304;9.816;2022-10-19T14:13:23;14.33;;;2.50;;
545;SDS011;259;53.304;9.816;2022-10-19T14:15:50;7.57;;;2.07;;
545;SDS011;259;53.304;9.816;2022-10-19T14:18:25;8.03;;;2.20;;
545;SDS011;259;53.304;9.816;2022-10-19T14:21:01;7.60;;;2.10;;
545;SDS011;259;53.304;9.816;2022-10-19T14:23:30;9.37;;;2.80;;
545;SDS011;259;53.304;9.816;2022-10-19T14:26:01;15.93;;;2.50;;
545;SDS011;259;53.304;9.816;2022-10-19T14:28:29;4.83;;;1.57;;
545;SDS011;259;53.304;9.816;2022-10-19T14:31:06;7.83;;;1.53;;
545;SDS011;259;53.304;9.816;2022-10-19T14:33:37;6.50;;;1.67;;
545;SDS011;259;53.304;9.816;2022-10-19T14:36:05;2.97;;;1.43;;
545;SDS011;259;53.304;9.816;2022-10-19T14:38:39;4.90;;;1.70;;
545;SDS011;259;53.304;9.816;2022-10-19T14:41:16;3.63;;;1.73;;
545;SDS011;259;53.304;9.816;2022-10-19T14:43:44;3.37;;;1.23;;
545;SDS011;259;53.304;9.816;2022-10-19T14:46:11;5.67;;;1.20;;
545;SDS011;259;53.304;9.816;2022-10-19T14:48:48;5.27;;;1.53;;
545;SDS011;259;53.304;9.816;2022-10-19T14:56:33;8.07;;;1.27;;
545;SDS011;259;53.304;9.816;2022-10-19T15:01:48;2.67;;;1.40;;
545;SDS011;259;53.304;9.816;2022-10-19T15:04:17;4.87;;;1.00;;
545;SDS011;259;53.304;9.816;2022-10-19T15:06:49;5.47;;;1.30;;
545;SDS011;259;53.304;9.816;2022-10-19T15:11:51;3.20;;;1.00;;
545;SDS011;259;53.304;9.816;2022-10-19T15:14:23;2.17;;;1.17;;
545;SDS011;259;53.304;9.816;2022-10-19T15:22:16;1.10;;;0.80;;
545;SDS011;259;53.304;9.816;2022-10-19T15:27:32;4.13;;;1.03;;
545;SDS011;259;53.304;9.816;2022-10-19T15:30:04;7.57;;;1.30;;
545;SDS011;259;53.304;9.816;2022-10-19T15:32:42;5.33;;;1.40;;
545;SDS011;259;53.304;9.816;2022-10-19T15:38:06;19.27;;;1.80;;
545;SDS011;259;53.304;9.816;2022-10-19T15:40:42;17.47;;;2.57;;
545;SDS011;259;53.304;9.816;2022-10-19T15:46:07;13.00;;;2.10;;
545;SDS011;259;53.304;9.816;2022-10-19T15:48:46;9.37;;;1.70;;
545;SDS011;259;53.304;9.816;2022-10-19T15:53:52;14.93;;;2.07;;
545;SDS011;259;53.304;9.816;2022-10-19T15:56:20;14.23;;;2.37;;
545;SDS011;259;53.304;9.816;2022-10-19T15:58:47;19.47;;;3.13;;
545;SDS011;259;53.304;9.816;2022-10-19T16:01:17;21.77;;;3.10;;
545;SDS011;259;53.304;9.816;2022-10-19T16:03:47;21.50;;;3.10;;
545;SDS011;259;53.304;9.816;2022-10-19T16:06:14;16.23;;;2.63;;
545;SDS011;259;53.304;9.816;2022-10-19T16:08:40;15.80;;;3.27;;
545;SDS011;259;53.304;9.816;2022-10-19T16:11:13;14.20;;;3.10;;
545;SDS011;259;53.304;9.816;2022-10-19T16:13:40;17.17;;;3.57;;
545;SDS011;259;53.304;9.816;2022-10-19T16:16:06;19.73;;;2.67;;
545;SDS011;259;53.304;9.816;2022-10-19T16:18:35;18.70;;;3.17;;
545;SDS011;259;53.304;9.816;2022-10-19T16:21:01;25.17;;;3.20;;
545;SDS011;259;53.304;9.816;2022-10-19T16:23:28;16.77;;;3.10;;
545;SDS011;259;53.304;9.816;2022-10-19T16:25:54;22.17;;;3.17;;
545;SDS011;259;53.304;9.816;2022-10-19T16:28:20;21.03;;;3.20;;
545;SDS011;259;53.304;9.816;2022-10-19T16:30:50;17.30;;;3.40;;
545;SDS011;259;53.304;9.816;2022-10-19T16:33:17;17.07;;;2.77;;
545;SDS011;259;53.304;9.816;2022-10-19T16:35:42;17.20;;;2.93;;
545;SDS011;259;53.304;9.816;2022-10-19T16:38:08;12.07;;;3.00;;
545;SDS011;259;53.304;9.816;2022-10-19T16:40:33;13.00;;;2.57;;
545;SDS011;259;53.304;9.816;2022-10-19T16:42:59;15.43;;;2.97;;
545;SDS011;259;53.304;9.816;2022-10-19T16:45:25;10.17;;;2.60;;
545;SDS011;259;53.304;9.816;2022-10-19T16:47:54;14.67;;;2.40;;
545;SDS011;259;53.304;9.816;2022-10-19T16:50:20;10.90;;;2.50;;
545;SDS011;259;53.304;9.816;2022-10-19T16:52:45;19.07;;;2.97;;
545;SDS011;259;53.304;9.816;2022-10-19T16:55:11;10.57;;;2.60;;
545;SDS011;259;53.304;9.816;2022-10-19T16:57:37;13.83;;;2.63;;
545;SDS011;259;53.304;9.816;2022-10-19T17:00:04;11.90;;;2.40;;
545;SDS011;259;53.304;9.816;2022-10-19T17:02:30;8.37;;;2.00;;
545;SDS011;259;53.304;9.816;2022-10-19T17:04:56;15.30;;;3.03;;
545;SDS011;259;53.304;9.816;2022-10-19T17:07:22;12.70;;;2.43;;
545;SDS011;259;53.304;9.816;2022-10-19T17:09:48;4.03;;;1.73;;
545;SDS011;259;53.304;9.816;2022-10-19T17:12:13;8.53;;;1.77;;
545;SDS011;259;53.304;9.816;2022-10-19T17:14:40;6.40;;;1.60;;
545;SDS011;259;53.304;9.816;2022-10-19T17:17:06;5.30;;;1.50;;
545;SDS011;259;53.304;9.816;2022-10-19T17:19:33;5.60;;;1.50;;
545;SDS011;259;53.304;9.816;2022-10-19T17:21:59;5.93;;;1.43;;
545;SDS011;259;53.304;9.816;2022-10-19T17:24:26;7.73;;;1.50;;
545;SDS011;259;53.304;9.816;2022-10-19T17:26:53;8.37;;;1.33;;
545;SDS011;259;53.304;9.816;2022-10-19T17:29:19;14.70;;;1.87;;
545;SDS011;259;53.304;9.816;2022-10-19T17:31:46;8.67;;;1.63;;
545;SDS011;259;53.304;9.816;2022-10-19T17:34:12;5.83;;;1.10;;
545;SDS011;259;53.304;9.816;2022-10-19T17:36:39;6.33;;;1.87;;
545;SDS011;259;53.304;9.816;2022-10-19T17:39:07;4.50;;;1.20;;
545;SDS011;259;53.304;9.816;2022-10-19T17:41:35;4.50;;;1.10;;
545;SDS011;259;53.304;9.816;2022-10-19T17:44:01;8.07;;;1.73;;
545;SDS011;259;53.304;9.816;2022-10-19T17:46:29;3.47;;;0.80;;
545;SDS011;259;53.304;9.816;2022-10-19T17:48:55;4.57;;;1.23;;
545;SDS011;259;53.304;9.816;2022-10-19T17:51:23;3.67;;;1.20;;
545;SDS011;259;53.304;9.816;2022-10-19T17:53:54;3.13;;;1.10;;
545;SDS011;259;53.304;9.816;2022-10-19T17:56:21;2.87;;;1.07;;
545;SDS011;259;53.304;9.816;2022-10-19T17:58:48;2.30;;;1.40;;
545;SDS011;259;53.304;9.816;2022-10-19T18:01:14;2.63;;;1.30;;
545;SDS011;259;53.304;9.816;2022-10-19T18:03:41;3.10;;;1.90;;
545;SDS011;259;53.304;9.816;2022-10-19T18:06:08;3.87;;;1.50;;
545;SDS011;259;53.304;9.816;2022-10-19T18:08:39;7.40;;;1.53;;
545;SDS011;259;53.304;9.816;2022-10-19T18:13:35;3.53;;;0.93;;
545;SDS011;259;53.304;9.816;2022-10-19T18:16:02;9.33;;;1.67;;
545;SDS011;259;53.304;9.816;2022-10-19T18:18:40;2.47;;;1.20;;
545;SDS011;259;53.304;9.816;2022-10-19T18:21:09;5.53;;;1.77;;
545;SDS011;259;53.304;9.816;2022-10-19T18:23:37;4.47;;;1.07;;
545;SDS011;259;53.304;9.816;2022-10-19T18:26:04;2.43;;;1.30;;
545;SDS011;259;53.304;9.816;2022-10-19T18:28:38;1.60;;;0.97;;
545;SDS011;259;53.304;9.816;2022-10-19T18:31:07;3.50;;;1.23;;
545;SDS011;259;53.304;9.816;2022-10-19T18:33:34;2.27;;;1.20;;
545;SDS011;259;53.304;9.816;2022-10-19T18:36:00;1.43;;;0.80;;
545;SDS011;259;53.304;9.816;2022-10-19T18:38:26;3.07;;;1.13;;
545;SDS011;259;53.304;9.816;2022-10-19T18:40:52;2.57;;;1.03;;
545;SDS011;259;53.304;9.816;2022-10-19T18:43:17;2.43;;;1.20;;